Time;durP1;ratioP1;P1;durP2;ratioP2;P2;SDS_P1;SDS_P2;PMS_P1;PMS_P2;Temp;Humidity;BMP_temperature;BMP_pressure;BME280_temperature;BME280_humidity;BME280_pressure;Samples;Min_cycle;Max_cycle;Signal;HPM_P1;HPM_P2
2023/02/18 00:02:02;;;;;;;16.38;2.65;;;7.60;99.90;;;;;;4860823;29;20490;-90
2023/02/18 00:04:28;;;;;;;20.83;3.05;;;7.60;99.90;;;;;;4859657;29;20500;-89
2023/02/18 00:06:53;;;;;;;17.13;2.85;;;7.60;99.90;;;;;;4861518;29;20057;-89
2023/02/18 00:09:19;;;;;;;15.10;2.38;;;7.60;99.90;;;;;;4862677;29;20044;-89
2023/02/18 00:11:44;;;;;;;15.73;2.90;;;7.60;99.90;;;;;;4859593;29;20041;-88
2023/02/18 00:14:12;;;;;;;14.77;2.45;;;7.60;99.90;;;;;;4860629;29;20052;-88
2023/02/18 00:16:38;;;;;;;18.95;2.92;;;7.60;99.90;;;;;;4860404;29;20045;-89
2023/02/18 00:19:06;;;;;;;17.80;2.85;;;7.60;99.90;;;;;;4861433;29;20045;-89
2023/02/18 00:21:33;;;;;;;17.65;2.63;;;7.60;99.90;;;;;;4860595;29;20052;-89
2023/02/18 00:24:04;;;;;;;14.57;3.03;;;7.60;99.90;;;;;;4860529;29;20120;-89
2023/02/18 00:26:30;;;;;;;14.80;2.55;;;7.60;99.90;;;;;;4860551;29;20068;-89
2023/02/18 00:28:55;;;;;;;15.68;2.65;;;7.60;99.90;;;;;;4860707;29;20486;-88
2023/02/18 00:31:25;;;;;;;18.50;2.90;;;7.60;99.90;;;;;;4860972;29;20041;-88
2023/02/18 00:33:51;;;;;;;14.35;2.95;;;7.60;99.90;;;;;;4859539;29;20518;-89
2023/02/18 00:36:18;;;;;;;13.80;2.33;;;7.60;99.90;;;;;;4860479;29;20283;-90
2023/02/18 00:38:53;;;;;;;11.05;2.47;;;7.60;99.90;;;;;;4861480;29;20172;-90
2023/02/18 00:41:21;;;;;;;18.23;2.55;;;7.60;99.90;;;;;;4864075;24;20061;-90
2023/02/18 00:43:47;;;;;;;20.75;2.97;;;7.60;99.90;;;;;;4842847;29;20050;-90
2023/02/18 00:46:13;;;;;;;13.05;2.70;;;7.60;99.90;;;;;;4841029;29;20038;-90
2023/02/18 00:48:39;;;;;;;19.80;3.30;;;7.60;99.90;;;;;;4844698;29;20074;-89
2023/02/18 00:51:06;;;;;;;14.30;3.08;;;7.60;99.90;;;;;;4842632;29;20038;-90
2023/02/18 00:53:32;;;;;;;14.05;2.83;;;7.60;99.90;;;;;;4840689;29;20458;-89
2023/02/18 00:55:58;;;;;;;16.80;2.58;;;7.60;99.90;;;;;;4838896;29;20054;-90
2023/02/18 00:58:24;;;;;;;17.02;2.80;;;7.60;99.90;;;;;;4835715;29;20052;-90
2023/02/18 01:00:50;;;;;;;13.55;3.22;;;7.60;99.90;;;;;;4841379;29;20054;-90
2023/02/18 01:03:16;;;;;;;23.25;3.38;;;7.60;99.90;;;;;;4840903;29;20132;-89
2023/02/18 01:05:43;;;;;;;11.82;3.08;;;7.60;99.90;;;;;;4842679;29;20531;-89
2023/02/18 01:08:09;;;;;;;19.65;2.80;;;7.60;99.90;;;;;;4842520;29;20046;-89
2023/02/18 01:10:40;;;;;;;10.90;2.35;;;7.60;99.90;;;;;;4823516;29;20415;-89
2023/02/18 01:13:05;;;;;;;14.70;2.92;;;7.60;99.90;;;;;;4829291;29;20093;-88
2023/02/18 01:15:31;;;;;;;15.80;3.20;;;7.60;99.90;;;;;;4844961;29;20822;-89
2023/02/18 01:17:57;;;;;;;17.20;3.00;;;7.60;99.90;;;;;;4847224;29;20061;-89
2023/02/18 01:20:22;;;;;;;20.23;3.60;;;7.60;99.90;;;;;;4841302;29;20559;-89
2023/02/18 01:22:48;;;;;;;18.27;3.83;;;7.60;99.90;;;;;;4841941;29;20046;-89
2023/02/18 01:25:14;;;;;;;15.30;3.47;;;7.60;99.90;;;;;;4844847;29;20522;-89
2023/02/18 01:27:40;;;;;;;25.70;4.05;;;7.60;99.90;;;;;;4843495;29;20137;-89
2023/02/18 01:30:08;;;;;;;18.23;3.60;;;7.70;99.90;;;;;;4843199;29;20057;-89
2023/02/18 01:32:34;;;;;;;19.80;3.55;;;7.70;99.90;;;;;;4841433;29;20042;-91
2023/02/18 01:35:01;;;;;;;16.15;3.75;;;7.70;99.90;;;;;;4842749;29;20086;-89
2023/02/18 01:37:27;;;;;;;17.98;3.25;;;7.70;99.90;;;;;;4841982;29;20312;-91
2023/02/18 01:39:52;;;;;;;23.90;4.05;;;7.60;99.90;;;;;;4842174;29;20136;-89
2023/02/18 01:42:25;;;;;;;18.52;4.47;;;7.70;99.90;;;;;;4840348;29;20066;-90
2023/02/18 01:44:51;;;;;;;18.02;3.83;;;7.70;99.90;;;;;;4841293;29;20051;-90
2023/02/18 01:47:17;;;;;;;20.00;4.32;;;7.70;99.90;;;;;;4843332;29;20060;-90
2023/02/18 01:49:46;;;;;;;12.00;3.25;;;7.70;99.90;;;;;;4844040;29;20050;-89
2023/02/18 01:52:16;;;;;;;21.98;4.63;;;7.70;99.90;;;;;;4810930;29;20057;-90
2023/02/18 01:54:46;;;;;;;21.90;4.80;;;7.70;99.90;;;;;;4829593;29;20403;-89
2023/02/18 01:57:16;;;;;;;18.23;4.20;;;7.70;99.90;;;;;;4843889;29;20053;-89
2023/02/18 01:59:48;;;;;;;22.02;5.15;;;7.70;99.90;;;;;;4844203;29;20153;-90
2023/02/18 02:02:21;;;;;;;18.10;4.82;;;7.70;99.90;;;;;;4845951;29;20076;-91
2023/02/18 02:04:48;;;;;;;29.13;6.60;;;7.70;99.90;;;;;;4844650;29;20038;-89
2023/02/18 02:07:14;;;;;;;21.92;5.15;;;7.70;99.90;;;;;;4845035;29;20410;-88
2023/02/18 02:09:41;;;;;;;19.80;5.68;;;7.70;99.90;;;;;;4844250;29;20042;-88
2023/02/18 02:12:27;;;;;;;23.33;4.95;;;7.80;99.90;;;;;;4843122;29;20053;-89
2023/02/18 02:15:05;;;;;;;25.40;6.00;;;7.80;99.90;;;;;;4844854;29;20128;-89
2023/02/18 02:17:36;;;;;;;23.77;6.30;;;7.80;99.90;;;;;;4839670;29;20064;-88
2023/02/18 02:20:48;;;;;;;19.20;5.30;;;7.80;99.90;;;;;;4845533;29;20092;-88
2023/02/18 02:23:36;;;;;;;19.83;5.25;;;7.80;99.90;;;;;;4843911;29;20054;-88
2023/02/18 02:26:13;;;;;;;21.02;5.95;;;7.80;99.90;;;;;;4844597;29;20046;-88
2023/02/18 02:29:14;;;;;;;22.70;6.70;;;7.80;99.90;;;;;;4843923;29;20061;-88
2023/02/18 02:32:05;;;;;;;23.38;5.55;;;7.80;99.90;;;;;;4843708;29;20132;-88
2023/02/18 02:34:40;;;;;;;18.95;5.05;;;7.80;99.90;;;;;;4859374;29;20061;-89
2023/02/18 02:37:18;;;;;;;16.30;4.85;;;7.80;99.90;;;;;;4844905;29;20049;-89
2023/02/18 02:40:05;;;;;;;22.50;6.13;;;7.80;99.90;;;;;;4844003;29;20515;-88
2023/02/18 02:42:55;;;;;;;17.23;4.75;;;7.90;99.90;;;;;;4858560;29;20149;-89
2023/02/18 02:45:40;;;;;;;20.48;5.70;;;7.90;99.90;;;;;;4843865;29;20490;-89
2023/02/18 02:48:43;;;;;;;20.17;4.88;;;7.90;99.90;;;;;;4833808;29;20054;-89
2023/02/18 02:51:32;;;;;;;21.70;5.43;;;7.90;99.90;;;;;;4831194;29;20134;-88
2023/02/18 02:54:15;;;;;;;22.40;4.97;;;7.90;99.90;;;;;;4829584;29;20154;-89
2023/02/18 02:56:40;;;;;;;17.08;4.57;;;7.90;99.90;;;;;;4844421;29;20070;-88
2023/02/18 02:59:10;;;;;;;23.38;5.28;;;8.00;99.90;;;;;;4842743;29;20551;-88
2023/02/18 03:01:55;;;;;;;16.75;4.82;;;8.00;99.90;;;;;;4841971;29;20057;-88
2023/02/18 03:04:49;;;;;;;18.20;4.85;;;8.00;99.90;;;;;;4843487;29;20456;-88
2023/02/18 03:07:59;;;;;;;25.95;5.70;;;8.00;99.90;;;;;;4837042;29;20065;-89
2023/02/18 03:10:46;;;;;;;17.00;4.35;;;8.00;99.90;;;;;;4863444;23;20113;-89
2023/02/18 03:13:25;;;;;;;17.02;5.13;;;8.00;99.90;;;;;;4876934;29;20469;-88
2023/02/18 03:15:56;;;;;;;14.63;3.85;;;8.00;99.90;;;;;;4862689;29;20510;-88
2023/02/18 03:18:37;;;;;;;16.95;4.18;;;8.10;99.90;;;;;;4861522;29;20050;-88
2023/02/18 03:21:36;;;;;;;17.70;4.53;;;8.10;99.90;;;;;;4860451;29;20105;-88
2023/02/18 03:24:30;;;;;;;17.80;4.68;;;8.10;99.90;;;;;;4838967;29;20058;-88
2023/02/18 03:27:19;;;;;;;;;;;8.10;99.90;;;;;;4858485;29;20121;-88
2023/02/18 03:29:51;;;;;;;14.82;4.90;;;8.10;99.90;;;;;;4835958;29;20369;-88
2023/02/18 03:32:20;;;;;;;17.85;6.05;;;8.10;99.90;;;;;;4858974;29;20045;-88
2023/02/18 03:34:50;;;;;;;21.45;5.82;;;8.10;99.90;;;;;;4861539;29;20049;-88
2023/02/18 03:37:19;;;;;;;22.30;6.75;;;8.20;99.90;;;;;;4860437;29;20049;-88
2023/02/18 03:39:50;;;;;;;25.88;8.60;;;8.20;99.90;;;;;;4861212;29;20053;-89
2023/02/18 03:42:17;;;;;;;27.38;7.28;;;8.20;99.90;;;;;;4860288;29;20060;-88
2023/02/18 03:44:43;;;;;;;24.30;8.00;;;8.30;99.90;;;;;;4862128;29;20045;-88
2023/02/18 03:47:10;;;;;;;19.35;5.88;;;8.30;99.90;;;;;;4860255;29;20044;-87
2023/02/18 03:49:35;;;;;;;30.98;8.10;;;8.30;99.90;;;;;;4860007;29;20050;-89
2023/02/18 03:52:01;;;;;;;23.40;9.82;;;8.40;99.90;;;;;;4860626;29;20044;-88
2023/02/18 03:54:27;;;;;;;30.02;11.18;;;8.40;99.90;;;;;;4862124;29;20049;-88
2023/02/18 03:56:52;;;;;;;28.33;11.95;;;8.40;99.90;;;;;;4861290;29;20132;-88
2023/02/18 03:59:18;;;;;;;33.33;12.00;;;8.40;99.90;;;;;;4861542;29;20052;-88
2023/02/18 04:01:43;;;;;;;35.55;15.05;;;8.50;99.90;;;;;;4860359;29;20049;-89
2023/02/18 04:04:09;;;;;;;36.38;15.63;;;8.50;99.90;;;;;;4861456;29;20402;-88
2023/02/18 04:06:35;;;;;;;41.10;17.77;;;8.50;99.90;;;;;;4861519;29;20068;-89
2023/02/18 04:09:01;;;;;;;41.90;16.65;;;8.50;99.90;;;;;;4860765;29;20083;-89
2023/02/18 04:11:27;;;;;;;42.25;17.75;;;8.60;99.90;;;;;;4844925;29;20175;-89
2023/02/18 04:13:52;;;;;;;40.95;18.30;;;8.60;99.90;;;;;;4860235;29;20506;-88
2023/02/18 04:16:18;;;;;;;46.05;19.35;;;8.60;99.90;;;;;;4861540;29;20057;-89
2023/02/18 04:18:43;;;;;;;42.58;19.92;;;8.60;99.90;;;;;;4860007;29;20379;-88
2023/02/18 04:21:09;;;;;;;45.65;21.13;;;8.60;99.90;;;;;;4860915;29;20124;-88
2023/02/18 04:23:35;;;;;;;38.30;19.05;;;8.70;99.90;;;;;;4858762;29;20563;-88
2023/02/18 04:26:00;;;;;;;46.55;22.63;;;8.70;99.90;;;;;;4850596;24;20057;-89
2023/02/18 04:28:26;;;;;;;50.35;22.60;;;8.70;99.90;;;;;;4841705;29;20081;-89
2023/02/18 04:30:52;;;;;;;52.75;23.40;;;8.70;99.90;;;;;;4842597;29;20045;-90
2023/02/18 04:33:18;;;;;;;48.63;22.10;;;8.80;99.90;;;;;;4826513;29;20065;-89
2023/02/18 04:35:44;;;;;;;61.42;26.35;;;8.80;99.90;;;;;;4841597;29;20046;-89
2023/02/18 04:38:10;;;;;;;54.83;24.40;;;8.80;99.90;;;;;;4840740;29;20149;-89
2023/02/18 04:40:36;;;;;;;45.42;23.58;;;8.80;99.90;;;;;;4841343;29;20045;-88
2023/02/18 04:43:05;;;;;;;57.90;25.80;;;8.80;99.90;;;;;;4843512;29;20502;-88
2023/02/18 04:45:31;;;;;;;49.47;24.65;;;8.90;99.90;;;;;;4842405;29;20084;-89
2023/02/18 04:47:58;;;;;;;58.38;26.42;;;8.90;99.90;;;;;;4842755;29;20077;-89
2023/02/18 04:50:23;;;;;;;57.80;26.33;;;8.90;99.90;;;;;;4842623;29;20050;-89
2023/02/18 04:52:49;;;;;;;50.28;25.83;;;8.90;99.90;;;;;;4840482;29;20046;-87
2023/02/18 04:55:15;;;;;;;65.40;28.83;;;8.90;99.90;;;;;;4841000;29;20057;-89
2023/02/18 04:57:40;;;;;;;64.45;29.02;;;8.90;99.90;;;;;;4841103;29;20053;-89
2023/02/18 05:00:12;;;;;;;69.85;28.88;;;8.90;99.90;;;;;;4841754;29;20057;-90
2023/02/18 05:02:38;;;;;;;69.93;30.08;;;8.90;99.90;;;;;;4842176;29;20084;-89
2023/02/18 05:05:04;;;;;;;72.88;30.48;;;9.00;99.90;;;;;;4842280;29;20073;-89
2023/02/18 05:07:29;;;;;;;50.08;23.98;;;9.00;99.90;;;;;;4840968;29;20046;-90
2023/02/18 05:09:55;;;;;;;64.53;29.38;;;9.00;99.90;;;;;;4843062;29;20492;-89
2023/02/18 05:12:20;;;;;;;61.20;29.02;;;9.00;99.90;;;;;;4841648;29;20050;-90
2023/02/18 05:14:46;;;;;;;47.33;25.13;;;9.00;99.90;;;;;;4840960;29;20050;-90
2023/02/18 05:17:12;;;;;;;63.95;29.75;;;9.00;99.90;;;;;;4841722;29;20049;-89
2023/02/18 05:19:37;;;;;;;65.80;31.65;;;9.00;99.90;;;;;;4843643;29;20053;-90
2023/02/18 05:22:03;;;;;;;53.83;27.85;;;9.00;99.90;;;;;;4842180;29;20048;-91
2023/02/18 05:24:29;;;;;;;62.70;29.73;;;9.00;99.90;;;;;;4846311;29;20053;-91
2023/02/18 05:26:54;;;;;;;65.43;30.83;;;9.00;99.90;;;;;;4829814;29;20046;-88
2023/02/18 05:29:20;;;;;;;56.17;27.42;;;9.00;99.90;;;;;;4861161;23;20056;-90
2023/02/18 05:31:46;;;;;;;54.13;27.80;;;9.00;99.90;;;;;;4860636;29;20042;-90
2023/02/18 05:34:11;;;;;;;62.47;30.90;;;9.00;99.90;;;;;;4845127;29;20041;-89
2023/02/18 05:36:37;;;;;;;42.70;22.77;;;9.10;99.90;;;;;;4849872;29;20048;-89
2023/02/18 05:39:03;;;;;;;44.72;24.70;;;9.10;99.90;;;;;;4856013;29;20046;-89
2023/02/18 05:41:29;;;;;;;44.22;25.70;;;9.10;99.90;;;;;;4843903;29;20050;-89
2023/02/18 05:46:38;;;;;;;57.33;27.98;;;9.10;99.90;;;;;;4849812;29;20438;-88
2023/02/18 05:49:04;;;;;;;48.55;26.73;;;9.10;99.90;;;;;;4844185;29;20086;-88
2023/02/18 05:51:30;;;;;;;45.60;25.58;;;9.10;99.90;;;;;;4843965;29;20061;-88
2023/02/18 05:53:58;;;;;;;57.70;27.85;;;9.10;99.90;;;;;;4859321;29;20049;-88
2023/02/18 05:56:23;;;;;;;50.55;24.77;;;9.10;99.90;;;;;;4860536;29;20100;-88
2023/02/18 05:58:49;;;;;;;40.72;23.05;;;9.10;99.90;;;;;;4856079;29;20513;-88
2023/02/18 06:01:15;;;;;;;43.72;23.05;;;9.10;99.90;;;;;;4859837;29;20060;-87
2023/02/18 06:03:40;;;;;;;40.83;19.90;;;9.20;99.90;;;;;;4859305;29;20046;-87
2023/02/18 06:06:06;;;;;;;35.50;19.20;;;9.20;99.90;;;;;;4844452;29;20050;-89
2023/02/18 06:08:32;;;;;;;39.80;18.40;;;9.20;99.90;;;;;;4845877;29;20455;-88
2023/02/18 06:10:58;;;;;;;34.30;16.88;;;9.20;99.90;;;;;;4848425;29;20044;-88
2023/02/18 06:13:23;;;;;;;40.85;17.17;;;9.30;99.90;;;;;;4862108;29;20071;-88
2023/02/18 06:15:52;;;;;;;28.92;15.88;;;9.30;99.90;;;;;;4862712;29;20109;-88
2023/02/18 06:18:18;;;;;;;26.20;13.23;;;9.30;99.90;;;;;;4860221;29;20050;-87
2023/02/18 06:20:45;;;;;;;26.80;12.95;;;9.40;99.90;;;;;;4843766;29;20052;-88
2023/02/18 06:23:10;;;;;;;19.80;11.73;;;9.40;99.90;;;;;;4859291;29;20041;-87
2023/02/18 06:25:36;;;;;;;18.92;11.10;;;9.40;99.90;;;;;;4860305;29;20133;-87
2023/02/18 06:28:02;;;;;;;21.50;10.13;;;9.40;99.90;;;;;;4863150;29;20048;-88
2023/02/18 06:30:27;;;;;;;18.52;10.48;;;9.50;99.90;;;;;;4860929;29;20061;-88
2023/02/18 06:32:53;;;;;;;13.52;8.73;;;9.50;99.90;;;;;;4861433;29;20117;-88
2023/02/18 06:35:19;;;;;;;16.88;9.85;;;9.50;99.90;;;;;;4861942;29;20058;-88
2023/02/18 06:37:45;;;;;;;15.48;9.52;;;9.50;99.90;;;;;;4853744;29;20396;-87
2023/02/18 06:40:11;;;;;;;14.68;9.70;;;9.50;99.90;;;;;;4844977;29;20045;-87
2023/02/18 06:42:36;;;;;;;15.68;10.35;;;9.60;99.90;;;;;;4858204;29;20390;-88
2023/02/18 06:45:02;;;;;;;19.35;11.75;;;9.60;99.90;;;;;;4862177;29;20573;-87
2023/02/18 06:47:30;;;;;;;17.45;11.07;;;9.60;99.90;;;;;;4855858;29;20071;-89
2023/02/18 06:49:55;;;;;;;18.02;12.43;;;9.60;99.90;;;;;;4843703;29;20049;-87
2023/02/18 06:52:21;;;;;;;18.17;12.40;;;9.60;99.90;;;;;;4850740;29;20049;-87
2023/02/18 06:54:46;;;;;;;21.02;13.20;;;9.60;99.90;;;;;;4846846;29;20041;-87
2023/02/18 06:57:12;;;;;;;23.80;14.38;;;9.70;99.90;;;;;;4861533;29;20052;-87
2023/02/18 06:59:38;;;;;;;23.58;15.25;;;9.70;99.90;;;;;;4861127;29;20053;-88
2023/02/18 07:02:03;;;;;;;24.80;16.05;;;9.70;99.90;;;;;;4861738;29;20132;-87
2023/02/18 07:04:29;;;;;;;21.02;14.18;;;9.70;99.90;;;;;;4843821;29;20110;-87
2023/02/18 07:06:54;;;;;;;29.60;16.30;;;9.70;99.90;;;;;;4850321;29;20098;-88
2023/02/18 07:09:20;;;;;;;24.50;15.05;;;9.80;99.90;;;;;;4848329;29;20054;-88
2023/02/18 07:11:45;;;;;;;26.67;16.45;;;9.80;99.90;;;;;;4844105;29;20115;-89
2023/02/18 07:14:11;;;;;;;23.73;15.60;;;9.80;99.90;;;;;;4857803;29;20041;-88
2023/02/18 07:16:37;;;;;;;26.20;16.20;;;9.80;99.90;;;;;;4861716;29;20445;-89
2023/02/18 07:19:02;;;;;;;27.80;15.82;;;9.80;99.90;;;;;;4844346;29;20099;-89
2023/02/18 07:21:28;;;;;;;26.65;14.90;;;9.90;99.90;;;;;;4851068;29;20064;-88
2023/02/18 07:23:53;;;;;;;25.00;14.60;;;9.90;99.90;;;;;;4859428;29;20074;-88
2023/02/18 07:26:19;;;;;;;25.00;13.77;;;9.90;99.90;;;;;;4861395;29;20082;-91
2023/02/18 07:28:45;;;;;;;25.30;13.80;;;9.90;99.90;;;;;;4851793;29;20054;-91
2023/02/18 07:31:10;;;;;;;21.35;12.77;;;9.90;99.90;;;;;;4851466;29;20415;-92
2023/02/18 07:33:36;;;;;;;20.52;12.80;;;9.90;99.90;;;;;;4843764;29;20046;-90
2023/02/18 07:40:27;;;;;;;22.95;11.98;;;10.00;99.90;;;;;;5816422;24;20029;-90
2023/02/18 07:46:17;;;;;;;23.02;11.23;;;9.90;99.90;;;;;;4973421;23;20049;-92
2023/02/18 07:48:43;;;;;;;19.70;10.13;;;9.90;99.90;;;;;;4861054;29;20050;-88
2023/02/18 07:51:13;;;;;;;21.73;10.82;;;10.00;99.90;;;;;;4861399;29;20098;-94
2023/02/18 07:53:39;;;;;;;20.58;9.93;;;9.90;99.90;;;;;;4861886;29;20053;-94
2023/02/18 07:56:05;;;;;;;21.08;9.75;;;10.00;99.90;;;;;;4861624;29;20065;-92
2023/02/18 07:58:34;;;;;;;22.00;9.52;;;10.00;99.90;;;;;;4862498;29;20049;-92
2023/02/18 08:01:07;;;;;;;21.05;9.40;;;10.00;99.90;;;;;;4861729;29;20069;-92
2023/02/18 08:03:33;;;;;;;19.13;7.93;;;10.00;99.90;;;;;;4862978;29;20065;-91
2023/02/18 08:06:00;;;;;;;20.10;8.20;;;10.00;99.90;;;;;;4928631;23;20050;-92
2023/02/18 08:08:28;;;;;;;19.98;8.40;;;10.00;99.90;;;;;;4897677;24;20049;-92
2023/02/18 08:11:01;;;;;;;25.00;7.07;;;10.00;99.90;;;;;;4954239;24;20065;-92
2023/02/18 08:13:28;;;;;;;20.88;7.07;;;10.00;99.90;;;;;;4862232;29;20092;-91
2023/02/18 08:15:54;;;;;;;19.00;6.65;;;10.00;99.90;;;;;;4845312;29;20140;-93
2023/02/18 08:18:22;;;;;;;15.80;6.65;;;10.00;99.90;;;;;;4845749;29;20053;-92
2023/02/18 08:20:48;;;;;;;22.55;7.35;;;10.00;99.90;;;;;;4845196;29;20081;-91
2023/02/18 08:23:15;;;;;;;18.60;6.65;;;10.00;99.90;;;;;;4860212;29;20090;-91
2023/02/18 08:25:48;;;;;;;18.65;6.18;;;10.00;99.90;;;;;;4838071;29;20050;-90
2023/02/18 08:28:13;;;;;;;18.10;6.40;;;10.00;99.90;;;;;;4846988;29;20046;-90
2023/02/18 08:30:44;;;;;;;19.98;5.82;;;10.00;99.90;;;;;;4826831;29;20137;-90
2023/02/18 08:33:10;;;;;;;18.73;6.10;;;10.00;99.90;;;;;;4827651;29;20054;-91
2023/02/18 08:35:38;;;;;;;17.75;6.78;;;10.00;99.90;;;;;;4831785;29;20047;-90
2023/02/18 08:38:04;;;;;;;18.65;6.72;;;10.00;99.90;;;;;;4855864;29;20046;-90
2023/02/18 08:40:29;;;;;;;18.60;6.78;;;10.00;99.90;;;;;;4851401;29;20093;-90
2023/02/18 08:42:55;;;;;;;22.15;7.10;;;10.00;99.90;;;;;;4829803;29;20041;-90
2023/02/18 08:45:21;;;;;;;18.92;6.68;;;10.00;99.90;;;;;;4847079;29;20058;-96
2023/02/18 08:47:50;;;;;;;15.18;5.95;;;10.00;99.90;;;;;;4861654;29;20041;-94
2023/02/18 08:50:16;;;;;;;13.20;6.65;;;10.00;99.90;;;;;;4845342;29;20057;-91
2023/02/18 08:52:42;;;;;;;16.70;6.65;;;10.00;99.90;;;;;;4861418;29;20041;-92
2023/02/18 08:55:08;;;;;;;22.25;7.10;;;10.00;99.90;;;;;;4847507;29;20065;-90
2023/02/18 08:57:33;;;;;;;19.58;7.35;;;10.00;99.90;;;;;;4846844;29;20585;-87
2023/02/18 08:59:59;;;;;;;17.55;6.68;;;10.00;99.90;;;;;;4843576;29;20137;-87
2023/02/18 09:02:25;;;;;;;21.17;6.50;;;10.00;99.90;;;;;;4844592;29;20490;-87
2023/02/18 09:04:50;;;;;;;16.45;6.13;;;10.00;99.90;;;;;;4843905;29;20128;-88
2023/02/18 09:07:17;;;;;;;12.02;5.00;;;10.00;99.90;;;;;;4859865;29;20049;-87
2023/02/18 09:09:43;;;;;;;16.27;5.60;;;10.00;99.90;;;;;;4843865;29;20525;-87
2023/02/18 09:12:08;;;;;;;11.77;5.22;;;10.00;99.90;;;;;;4859975;29;20057;-87
2023/02/18 09:14:34;;;;;;;14.25;4.90;;;10.00;99.90;;;;;;4844266;29;20049;-88
2023/02/18 09:16:59;;;;;;;12.27;4.80;;;10.00;99.90;;;;;;4860176;29;20045;-91
2023/02/18 09:19:25;;;;;;;14.90;4.57;;;10.00;99.90;;;;;;4842679;29;20406;-89
2023/02/18 09:21:52;;;;;;;13.73;4.40;;;10.00;99.90;;;;;;4860349;29;20049;-89
2023/02/18 09:24:21;;;;;;;16.33;4.60;;;9.90;99.90;;;;;;4843715;29;20490;-88
2023/02/18 09:26:46;;;;;;;12.77;4.13;;;9.90;99.90;;;;;;4859407;29;20439;-89
2023/02/18 09:29:12;;;;;;;14.48;4.70;;;9.90;99.90;;;;;;4860082;29;20040;-89
2023/02/18 09:31:38;;;;;;;15.38;4.50;;;9.90;99.90;;;;;;4860686;29;20041;-88
2023/02/18 09:34:04;;;;;;;15.60;4.80;;;9.90;99.90;;;;;;4843112;29;20080;-89
2023/02/18 09:36:31;;;;;;;15.95;4.72;;;9.90;99.90;;;;;;4859904;29;20056;-89
2023/02/18 09:38:57;;;;;;;12.48;3.88;;;9.90;99.90;;;;;;4860518;29;20391;-88
2023/02/18 09:41:44;;;;;;;15.48;4.43;;;9.90;99.90;;;;;;4843027;29;20042;-88
2023/02/18 09:44:23;;;;;;;13.90;4.10;;;9.90;99.90;;;;;;4859585;29;20042;-88
2023/02/18 09:46:58;;;;;;;12.60;3.53;;;9.90;99.90;;;;;;4847820;29;20498;-87
2023/02/18 09:49:33;;;;;;;15.02;3.90;;;9.90;99.90;;;;;;4842636;29;20056;-88
2023/02/18 09:52:11;;;;;;;15.27;3.78;;;9.90;99.90;;;;;;4860372;29;20046;-89
2023/02/18 09:54:37;;;;;;;18.85;3.80;;;9.90;99.90;;;;;;4843225;29;20054;-88
2023/02/18 09:57:05;;;;;;;18.15;3.65;;;9.80;99.90;;;;;;4843314;29;20132;-89
2023/02/18 09:59:31;;;;;;;15.82;3.58;;;9.90;99.90;;;;;;4859835;29;20077;-89
2023/02/18 10:01:57;;;;;;;20.25;3.22;;;9.90;99.90;;;;;;4843039;29;20053;-88
2023/02/18 10:04:31;;;;;;;16.88;3.45;;;9.90;99.90;;;;;;4859916;29;20045;-88
2023/02/18 10:06:57;;;;;;;14.43;2.90;;;9.90;99.90;;;;;;4843524;29;20053;-88
2023/02/18 10:09:33;;;;;;;13.88;2.75;;;9.80;99.90;;;;;;4861922;29;20084;-88
2023/02/18 10:12:12;;;;;;;16.10;3.08;;;9.80;99.90;;;;;;4846368;29;20051;-88
2023/02/18 10:14:37;;;;;;;16.83;2.97;;;9.90;99.90;;;;;;4846730;29;20045;-89
2023/02/18 10:17:04;;;;;;;17.65;3.38;;;9.90;99.90;;;;;;4862877;29;20041;-88
2023/02/18 10:19:37;;;;;;;18.17;3.13;;;9.90;99.90;;;;;;4846636;29;20041;-89
2023/02/18 10:22:05;;;;;;;15.02;2.83;;;9.90;99.90;;;;;;4863584;29;20076;-89
2023/02/18 10:24:39;;;;;;;19.85;3.03;;;9.90;99.90;;;;;;4845865;29;20041;-88
2023/02/18 10:27:06;;;;;;;16.13;2.95;;;9.90;99.90;;;;;;4846677;29;20129;-89
2023/02/18 10:29:33;;;;;;;17.20;3.65;;;9.90;99.90;;;;;;4845788;29;20491;-89
2023/02/18 10:32:10;;;;;;;25.88;3.72;;;9.90;99.90;;;;;;4863327;29;20132;-93
2023/02/18 10:34:43;;;;;;;13.45;3.25;;;9.90;99.90;;;;;;4864633;29;20056;-90
2023/02/18 10:37:33;;;;;;;20.30;3.55;;;9.90;99.90;;;;;;4863794;29;20045;-91
2023/02/18 10:40:12;;;;;;;13.85;3.08;;;10.00;99.90;;;;;;4848117;29;20049;-92
2023/02/18 10:42:50;;;;;;;14.35;4.22;;;10.00;99.90;;;;;;4847916;29;20051;-93
2023/02/18 10:45:46;;;;;;;24.92;4.03;;;10.00;99.90;;;;;;4847703;29;20056;-93
2023/02/18 10:48:46;;;;;;;21.67;4.18;;;10.00;99.90;;;;;;4848068;29;20045;-91
2023/02/18 10:51:20;;;;;;;15.30;2.95;;;10.00;99.90;;;;;;4847280;29;20053;-91
2023/02/18 10:53:49;;;;;;;16.67;2.90;;;10.10;99.90;;;;;;4860367;29;20081;-96
2023/02/18 10:56:34;;;;;;;17.15;3.15;;;10.10;99.90;;;;;;4848679;29;20085;-91
2023/02/18 10:59:22;;;;;;;23.88;3.25;;;10.10;99.90;;;;;;4847555;29;20070;-92
2023/02/18 11:02:04;;;;;;;16.95;2.95;;;10.20;99.90;;;;;;4842105;29;20057;-93
2023/02/18 11:04:38;;;;;;;14.98;2.80;;;10.20;99.90;;;;;;4861471;29;20044;-96
2023/02/18 11:07:13;;;;;;;19.65;3.15;;;10.30;99.90;;;;;;4844868;29;20087;-94
2023/02/18 11:09:46;;;;;;;17.95;2.95;;;10.30;99.90;;;;;;4849113;29;20049;-94
2023/02/18 11:12:39;;;;;;;17.10;3.28;;;10.30;99.90;;;;;;4873408;29;20068;-93
2023/02/18 11:15:19;;;;;;;12.32;2.63;;;10.40;99.90;;;;;;4859490;29;20050;-93
2023/02/18 11:17:50;;;;;;;18.63;3.08;;;10.40;99.90;;;;;;4956447;23;20049;-96
2023/02/18 11:20:29;;;;;;;17.80;2.63;;;10.40;99.90;;;;;;4866907;29;20088;-96
2023/02/18 11:23:07;;;;;;;17.17;3.22;;;10.50;99.90;;;;;;4860799;29;20079;-96
2023/02/18 11:25:35;;;;;;;19.65;5.28;;;10.50;99.90;;;;;;4857301;29;20053;-96
2023/02/18 11:28:18;;;;;;;24.33;4.68;;;10.60;99.90;;;;;;4862489;29;20470;-96
2023/02/18 11:30:48;;;;;;;16.10;4.18;;;10.60;99.90;;;;;;4857032;29;20053;-96
2023/02/18 11:33:17;;;;;;;15.93;4.00;;;10.60;99.90;;;;;;4863832;29;20045;-94
2023/02/18 11:35:55;;;;;;;17.35;3.83;;;10.70;99.90;;;;;;4861956;29;20060;-95
2023/02/18 11:38:56;;;;;;;14.52;3.38;;;10.80;99.90;;;;;;4864222;29;20402;-95
2023/02/18 11:41:36;;;;;;;15.73;3.65;;;10.80;99.90;;;;;;4858449;29;20058;-95
2023/02/18 11:44:04;;;;;;;14.02;3.53;;;10.80;99.90;;;;;;4864142;29;20052;-95
2023/02/18 11:46:30;;;;;;;15.38;2.97;;;10.80;99.90;;;;;;4855203;29;20042;-95
2023/02/18 11:49:18;;;;;;;18.73;3.38;;;10.90;99.90;;;;;;4861397;29;20128;-95
2023/02/18 11:51:45;;;;;;;16.35;3.50;;;10.90;99.90;;;;;;4862451;29;20041;-95
2023/02/18 11:54:23;;;;;;;15.57;3.63;;;10.90;99.90;;;;;;4858620;29;20050;-95
2023/02/18 11:57:02;;;;;;;19.88;3.60;;;11.00;99.90;;;;;;4863588;29;20048;-95
2023/02/18 11:59:32;;;;;;;15.10;3.92;;;10.90;99.90;;;;;;4868379;29;20053;-95
2023/02/18 12:02:10;;;;;;;20.08;4.65;;;10.90;99.90;;;;;;4854377;29;20053;-94
2023/02/18 12:05:04;;;;;;;16.73;4.10;;;11.00;99.90;;;;;;4870046;29;20046;-94
2023/02/18 12:07:47;;;;;;;12.95;2.80;;;11.00;99.90;;;;;;4863817;29;20076;-95
2023/02/18 12:10:25;;;;;;;12.70;2.63;;;11.00;99.90;;;;;;4862692;29;20151;-92
2023/02/18 12:13:12;;;;;;;19.65;2.95;;;11.00;99.90;;;;;;4858015;29;20077;-94
2023/02/18 12:15:40;;;;;;;15.38;2.60;;;11.00;99.90;;;;;;4860977;29;20129;-93
2023/02/18 12:18:27;;;;;;;13.80;2.63;;;11.00;99.90;;;;;;4861965;29;20057;-92
2023/02/18 12:20:59;;;;;;;15.35;2.83;;;11.10;99.90;;;;;;4849646;29;20162;-95
2023/02/18 12:23:45;;;;;;;16.85;2.90;;;11.10;99.90;;;;;;4862477;29;20120;-93
2023/02/18 12:26:29;;;;;;;12.52;2.78;;;11.10;99.90;;;;;;4855641;29;20060;-93
2023/02/18 12:29:21;;;;;;;14.02;2.83;;;11.10;99.90;;;;;;4859130;29;20124;-90
2023/02/18 12:32:08;;;;;;;12.85;2.72;;;11.10;99.90;;;;;;4861335;29;20049;-93
2023/02/18 12:35:20;;;;;;;16.33;3.33;;;11.10;99.90;;;;;;4849885;29;20057;-90
2023/02/18 12:37:59;;;;;;;15.40;2.70;;;11.10;99.90;;;;;;4848689;29;20140;-92
2023/02/18 12:40:34;;;;;;;17.98;2.95;;;11.20;99.90;;;;;;4860419;29;20049;-92
2023/02/18 12:43:38;;;;;;;14.95;2.60;;;11.20;99.90;;;;;;4860332;29;20049;-91
2023/02/18 12:46:32;;;;;;;12.05;2.60;;;11.20;99.90;;;;;;4860432;29;20049;-93
2023/02/18 12:49:30;;;;;;;16.92;3.10;;;11.30;99.90;;;;;;4861018;29;20041;-92
2023/02/18 12:52:14;;;;;;;15.35;2.90;;;11.20;99.90;;;;;;4860336;29;20399;-92
2023/02/18 12:55:18;;;;;;;16.05;2.80;;;11.30;99.90;;;;;;4861803;29;20045;-93
2023/02/18 12:58:09;;;;;;;15.48;2.90;;;11.30;99.90;;;;;;4861061;29;20041;-92
2023/02/18 13:00:49;;;;;;;14.63;3.00;;;11.30;99.90;;;;;;4857101;29;20057;-94
2023/02/18 13:03:36;;;;;;;15.52;2.75;;;11.30;99.90;;;;;;4838836;29;20041;-94
2023/02/18 13:06:28;;;;;;;14.95;2.97;;;11.30;99.90;;;;;;4861321;29;20092;-96
2023/02/18 13:09:03;;;;;;;15.25;2.85;;;11.30;99.90;;;;;;4868760;29;20477;-96
2023/02/18 13:11:47;;;;;;;15.63;3.25;;;11.40;99.90;;;;;;4859447;29;20056;-95
2023/02/18 13:14:22;;;;;;;15.15;2.97;;;11.40;99.90;;;;;;4864668;29;20049;-95